sensor_id;sensor_type;location;lat;lon;timestamp;P1;durP1;ratioP1;P2;durP2;ratioP2
53309;SDS011;39197;53.200;5.792;2023-02-12T00:02:15;49.53;;;16.40;;
53309;SDS011;39197;53.200;5.792;2023-02-12T00:04:41;67.05;;;18.10;;
53309;SDS011;39197;53.200;5.792;2023-02-12T00:07:07;63.78;;;16.35;;
53309;SDS011;39197;53.200;5.792;2023-02-12T00:09:33;45.17;;;19.95;;
53309;SDS011;39197;53.200;5.792;2023-02-12T00:11:58;64.78;;;17.38;;
53309;SDS011;39197;53.200;5.792;2023-02-12T00:14:24;45.80;;;17.67;;
53309;SDS011;39197;53.200;5.792;2023-02-12T00:16:49;35.78;;;19.33;;
53309;SDS011;39197;53.200;5.792;2023-02-12T00:19:15;38.45;;;22.15;;
53309;SDS011;39197;53.200;5.792;2023-02-12T00:21:41;39.05;;;20.77;;
53309;SDS011;39197;53.200;5.792;2023-02-12T00:24:06;99.32;;;19.63;;
53309;SDS011;39197;53.200;5.792;2023-02-12T00:26:32;55.72;;;19.30;;
53309;SDS011;39197;53.200;5.792;2023-02-12T00:28:59;44.33;;;18.58;;
53309;SDS011;39197;53.200;5.792;2023-02-12T00:31:26;30.52;;;15.45;;
53309;SDS011;39197;53.200;5.792;2023-02-12T00:33:52;52.25;;;17.38;;
53309;SDS011;39197;53.200;5.792;2023-02-12T00:36:20;32.90;;;11.15;;
53309;SDS011;39197;53.200;5.792;2023-02-12T00:38:47;38.38;;;14.32;;
53309;SDS011;39197;53.200;5.792;2023-02-12T00:41:15;61.00;;;14.43;;
53309;SDS011;39197;53.200;5.792;2023-02-12T00:43:40;55.97;;;13.00;;
53309;SDS011;39197;53.200;5.792;2023-02-12T00:46:06;30.15;;;10.77;;
53309;SDS011;39197;53.200;5.792;2023-02-12T00:48:32;52.58;;;14.52;;
53309;SDS011;39197;53.200;5.792;2023-02-12T00:50:58;60.50;;;15.00;;
53309;SDS011;39197;53.200;5.792;2023-02-12T00:53:24;54.63;;;16.67;;
53309;SDS011;39197;53.200;5.792;2023-02-12T00:55:49;98.53;;;19.55;;
53309;SDS011;39197;53.200;5.792;2023-02-12T00:58:15;61.17;;;19.83;;
53309;SDS011;39197;53.200;5.792;2023-02-12T01:00:41;33.72;;;17.63;;
53309;SDS011;39197;53.200;5.792;2023-02-12T01:03:08;43.10;;;16.83;;
53309;SDS011;39197;53.200;5.792;2023-02-12T01:05:34;51.47;;;14.82;;
53309;SDS011;39197;53.200;5.792;2023-02-12T01:07:59;35.88;;;15.38;;
53309;SDS011;39197;53.200;5.792;2023-02-12T01:10:25;45.47;;;12.70;;
53309;SDS011;39197;53.200;5.792;2023-02-12T01:12:51;28.08;;;9.80;;
53309;SDS011;39197;53.200;5.792;2023-02-12T01:15:17;34.38;;;13.10;;
53309;SDS011;39197;53.200;5.792;2023-02-12T01:17:43;51.63;;;14.38;;
53309;SDS011;39197;53.200;5.792;2023-02-12T01:20:13;38.40;;;13.57;;
53309;SDS011;39197;53.200;5.792;2023-02-12T01:22:43;43.58;;;16.45;;
53309;SDS011;39197;53.200;5.792;2023-02-12T01:25:09;68.70;;;13.68;;
53309;SDS011;39197;53.200;5.792;2023-02-12T01:27:35;51.28;;;21.27;;
53309;SDS011;39197;53.200;5.792;2023-02-12T01:30:01;79.10;;;13.10;;
53309;SDS011;39197;53.200;5.792;2023-02-12T01:32:27;40.83;;;14.52;;
53309;SDS011;39197;53.200;5.792;2023-02-12T01:34:53;48.25;;;13.07;;
53309;SDS011;39197;53.200;5.792;2023-02-12T01:37:18;59.78;;;18.17;;
53309;SDS011;39197;53.200;5.792;2023-02-12T01:39:44;60.58;;;13.48;;
53309;SDS011;39197;53.200;5.792;2023-02-12T01:42:13;57.90;;;16.15;;
53309;SDS011;39197;53.200;5.792;2023-02-12T01:45:17;155.18;;;17.92;;
53309;SDS011;39197;53.200;5.792;2023-02-12T01:47:37;52.88;;;15.35;;
53309;SDS011;39197;53.200;5.792;2023-02-12T01:50:04;94.60;;;18.10;;
53309;SDS011;39197;53.200;5.792;2023-02-12T01:52:33;86.43;;;17.15;;
53309;SDS011;39197;53.200;5.792;2023-02-12T01:55:01;159.95;;;20.83;;
53309;SDS011;39197;53.200;5.792;2023-02-12T01:57:31;68.80;;;18.05;;
53309;SDS011;39197;53.200;5.792;2023-02-12T02:00:03;29.17;;;14.38;;
53309;SDS011;39197;53.200;5.792;2023-02-12T02:02:30;100.55;;;19.23;;
53309;SDS011;39197;53.200;5.792;2023-02-12T02:04:57;70.88;;;17.10;;
53309;SDS011;39197;53.200;5.792;2023-02-12T02:07:26;98.85;;;17.92;;
53309;SDS011;39197;53.200;5.792;2023-02-12T02:09:52;78.68;;;18.08;;
53309;SDS011;39197;53.200;5.792;2023-02-12T02:12:20;78.85;;;17.98;;
53309;SDS011;39197;53.200;5.792;2023-02-12T02:15:04;46.13;;;17.88;;
53309;SDS011;39197;53.200;5.792;2023-02-12T02:31:25;100.88;;;17.92;;
53309;SDS011;39197;53.200;5.792;2023-02-12T02:34:28;128.85;;;18.08;;
53309;SDS011;39197;53.200;5.792;2023-02-12T02:37:13;45.80;;;19.27;;
53309;SDS011;39197;53.200;5.792;2023-02-12T02:39:47;89.05;;;17.42;;
53309;SDS011;39197;53.200;5.792;2023-02-12T02:45:03;105.70;;;22.38;;
53309;SDS011;39197;53.200;5.792;2023-02-12T02:47:40;151.23;;;26.17;;
53309;SDS011;39197;53.200;5.792;2023-02-12T02:50:09;77.43;;;25.30;;
53309;SDS011;39197;53.200;5.792;2023-02-12T02:55:34;103.70;;;23.45;;
53309;SDS011;39197;53.200;5.792;2023-02-12T02:58:15;131.95;;;28.60;;
53309;SDS011;39197;53.200;5.792;2023-02-12T03:00:45;86.78;;;24.80;;
53309;SDS011;39197;53.200;5.792;2023-02-12T03:03:18;103.37;;;29.03;;
53309;SDS011;39197;53.200;5.792;2023-02-12T03:06:01;106.05;;;25.17;;
53309;SDS011;39197;53.200;5.792;2023-02-12T03:08:30;86.10;;;22.27;;
53309;SDS011;39197;53.200;5.792;2023-02-12T03:11:05;76.75;;;22.65;;
53309;SDS011;39197;53.200;5.792;2023-02-12T03:13:39;93.63;;;24.35;;
53309;SDS011;39197;53.200;5.792;2023-02-12T03:16:11;92.03;;;21.60;;
53309;SDS011;39197;53.200;5.792;2023-02-12T03:18:45;116.53;;;23.65;;
53309;SDS011;39197;53.200;5.792;2023-02-12T03:21:32;130.15;;;26.13;;
53309;SDS011;39197;53.200;5.792;2023-02-12T03:24:12;159.50;;;26.83;;
53309;SDS011;39197;53.200;5.792;2023-02-12T03:26:46;110.80;;;21.17;;
53309;SDS011;39197;53.200;5.792;2023-02-12T03:29:19;113.07;;;18.10;;
53309;SDS011;39197;53.200;5.792;2023-02-12T03:34:24;207.75;;;22.60;;
53309;SDS011;39197;53.200;5.792;2023-02-12T03:39:54;189.45;;;21.77;;
53309;SDS011;39197;53.200;5.792;2023-02-12T03:42:38;292.25;;;24.40;;
53309;SDS011;39197;53.200;5.792;2023-02-12T03:48:20;361.75;;;30.27;;
53309;SDS011;39197;53.200;5.792;2023-02-12T03:50:59;192.07;;;26.88;;
53309;SDS011;39197;53.200;5.792;2023-02-12T03:53:33;243.98;;;29.95;;
53309;SDS011;39197;53.200;5.792;2023-02-12T03:56:04;227.52;;;29.92;;
53309;SDS011;39197;53.200;5.792;2023-02-12T03:58:37;355.60;;;31.15;;
53309;SDS011;39197;53.200;5.792;2023-02-12T04:01:03;328.88;;;30.80;;
53309;SDS011;39197;53.200;5.792;2023-02-12T04:03:30;150.02;;;24.80;;
53309;SDS011;39197;53.200;5.792;2023-02-12T04:05:56;254.50;;;28.15;;
53309;SDS011;39197;53.200;5.792;2023-02-12T04:08:21;195.00;;;30.90;;
53309;SDS011;39197;53.200;5.792;2023-02-12T04:10:55;390.42;;;35.35;;
53309;SDS011;39197;53.200;5.792;2023-02-12T04:13:46;394.58;;;41.58;;
53309;SDS011;39197;53.200;5.792;2023-02-12T04:16:40;437.85;;;38.10;;
53309;SDS011;39197;53.200;5.792;2023-02-12T04:19:12;296.42;;;28.02;;
53309;SDS011;39197;53.200;5.792;2023-02-12T04:21:56;253.88;;;26.05;;
53309;SDS011;39197;53.200;5.792;2023-02-12T04:30:03;321.80;;;25.35;;
53309;SDS011;39197;53.200;5.792;2023-02-12T04:32:49;255.52;;;20.60;;
53309;SDS011;39197;53.200;5.792;2023-02-12T04:35:21;392.77;;;26.20;;
53309;SDS011;39197;53.200;5.792;2023-02-12T04:37:52;269.42;;;22.30;;
53309;SDS011;39197;53.200;5.792;2023-02-12T04:42:50;344.08;;;23.13;;
53309;SDS011;39197;53.200;5.792;2023-02-12T04:45:27;236.57;;;19.13;;
53309;SDS011;39197;53.200;5.792;2023-02-12T04:47:54;371.42;;;25.80;;
53309;SDS011;39197;53.200;5.792;2023-02-12T04:50:20;241.43;;;18.05;;
53309;SDS011;39197;53.200;5.792;2023-02-12T04:52:46;306.77;;;21.25;;
53309;SDS011;39197;53.200;5.792;2023-02-12T04:55:13;422.35;;;26.02;;
53309;SDS011;39197;53.200;5.792;2023-02-12T04:57:38;241.38;;;22.75;;
53309;SDS011;39197;53.200;5.792;2023-02-12T05:00:04;433.92;;;24.88;;
53309;SDS011;39197;53.200;5.792;2023-02-12T05:02:32;184.48;;;16.05;;
53309;SDS011;39197;53.200;5.792;2023-02-12T05:04:58;360.42;;;24.75;;
53309;SDS011;39197;53.200;5.792;2023-02-12T05:07:24;133.63;;;15.18;;
53309;SDS011;39197;53.200;5.792;2023-02-12T05:09:50;89.47;;;9.85;;
53309;SDS011;39197;53.200;5.792;2023-02-12T05:12:15;127.28;;;16.08;;
53309;SDS011;39197;53.200;5.792;2023-02-12T05:14:41;267.25;;;23.35;;
53309;SDS011;39197;53.200;5.792;2023-02-12T05:17:06;214.40;;;18.55;;
53309;SDS011;39197;53.200;5.792;2023-02-12T05:19:32;140.75;;;22.02;;
53309;SDS011;39197;53.200;5.792;2023-02-12T05:21:58;165.90;;;18.40;;
53309;SDS011;39197;53.200;5.792;2023-02-12T05:24:23;63.88;;;14.98;;
53309;SDS011;39197;53.200;5.792;2023-02-12T05:26:49;282.58;;;19.10;;
53309;SDS011;39197;53.200;5.792;2023-02-12T05:29:15;156.70;;;19.75;;
53309;SDS011;39197;53.200;5.792;2023-02-12T05:31:41;104.65;;;22.45;;
53309;SDS011;39197;53.200;5.792;2023-02-12T05:34:08;90.80;;;17.60;;
53309;SDS011;39197;53.200;5.792;2023-02-12T05:36:35;146.68;;;18.95;;
53309;SDS011;39197;53.200;5.792;2023-02-12T05:39:01;103.80;;;17.95;;
53309;SDS011;39197;53.200;5.792;2023-02-12T05:41:27;80.53;;;16.77;;
53309;SDS011;39197;53.200;5.792;2023-02-12T05:43:53;55.65;;;14.68;;
53309;SDS011;39197;53.200;5.792;2023-02-12T05:46:19;42.53;;;11.48;;
53309;SDS011;39197;53.200;5.792;2023-02-12T05:48:46;49.20;;;16.38;;
53309;SDS011;39197;53.200;5.792;2023-02-12T05:51:13;75.80;;;23.15;;
53309;SDS011;39197;53.200;5.792;2023-02-12T05:53:44;45.47;;;17.60;;
53309;SDS011;39197;53.200;5.792;2023-02-12T05:58:42;60.90;;;19.98;;
53309;SDS011;39197;53.200;5.792;2023-02-12T06:03:43;36.13;;;13.55;;
53309;SDS011;39197;53.200;5.792;2023-02-12T06:06:08;58.25;;;21.48;;
53309;SDS011;39197;53.200;5.792;2023-02-12T06:08:35;44.85;;;14.95;;
53309;SDS011;39197;53.200;5.792;2023-02-12T06:11:02;44.10;;;15.63;;
53309;SDS011;39197;53.200;5.792;2023-02-12T06:13:29;42.97;;;14.85;;
53309;SDS011;39197;53.200;5.792;2023-02-12T06:15:55;45.58;;;14.55;;
53309;SDS011;39197;53.200;5.792;2023-02-12T06:18:21;25.25;;;11.00;;
53309;SDS011;39197;53.200;5.792;2023-02-12T06:20:47;41.30;;;16.90;;
53309;SDS011;39197;53.200;5.792;2023-02-12T06:23:12;49.92;;;17.13;;
53309;SDS011;39197;53.200;5.792;2023-02-12T06:25:38;34.92;;;14.23;;
53309;SDS011;39197;53.200;5.792;2023-02-12T06:28:03;50.47;;;18.77;;
53309;SDS011;39197;53.200;5.792;2023-02-12T06:30:29;35.67;;;15.40;;
53309;SDS011;39197;53.200;5.792;2023-02-12T06:32:56;56.30;;;20.60;;
53309;SDS011;39197;53.200;5.792;2023-02-12T06:35:21;55.53;;;20.33;;
53309;SDS011;39197;53.200;5.792;2023-02-12T06:37:47;56.38;;;22.02;;
53309;SDS011;39197;53.200;5.792;2023-02-12T06:40:13;61.55;;;22.02;;
53309;SDS011;39197;53.200;5.792;2023-02-12T06:42:38;59.70;;;21.20;;
53309;SDS011;39197;53.200;5.792;2023-02-12T06:45:04;54.67;;;20.42;;
53309;SDS011;39197;53.200;5.792;2023-02-12T06:47:30;59.33;;;21.88;;
53309;SDS011;39197;53.200;5.792;2023-02-12T06:49:55;52.95;;;19.92;;
53309;SDS011;39197;53.200;5.792;2023-02-12T06:52:21;66.60;;;23.27;;
53309;SDS011;39197;53.200;5.792;2023-02-12T06:54:46;65.18;;;23.95;;
53309;SDS011;39197;53.200;5.792;2023-02-12T06:57:12;64.13;;;24.55;;
53309;SDS011;39197;53.200;5.792;2023-02-12T06:59:37;73.22;;;24.65;;
53309;SDS011;39197;53.200;5.792;2023-02-12T07:02:03;60.30;;;23.63;;
53309;SDS011;39197;53.200;5.792;2023-02-12T07:04:29;61.15;;;22.50;;
53309;SDS011;39197;53.200;5.792;2023-02-12T07:06:54;60.20;;;23.67;;
53309;SDS011;39197;53.200;5.792;2023-02-12T07:09:20;61.95;;;22.83;;
53309;SDS011;39197;53.200;5.792;2023-02-12T07:11:45;65.93;;;24.52;;
53309;SDS011;39197;53.200;5.792;2023-02-12T07:14:12;68.65;;;26.38;;
53309;SDS011;39197;53.200;5.792;2023-02-12T07:16:39;64.03;;;25.65;;
53309;SDS011;39197;53.200;5.792;2023-02-12T07:19:05;62.53;;;25.35;;
53309;SDS011;39197;53.200;5.792;2023-02-12T07:21:31;61.72;;;25.95;;
53309;SDS011;39197;53.200;5.792;2023-02-12T07:23:56;58.50;;;23.77;;
53309;SDS011;39197;53.200;5.792;2023-02-12T07:26:22;69.88;;;28.58;;
53309;SDS011;39197;53.200;5.792;2023-02-12T07:28:48;71.07;;;27.17;;
53309;SDS011;39197;53.200;5.792;2023-02-12T07:31:18;62.97;;;24.60;;
53309;SDS011;39197;53.200;5.792;2023-02-12T07:33:46;58.65;;;25.95;;
53309;SDS011;39197;53.200;5.792;2023-02-12T07:36:13;63.05;;;25.55;;
53309;SDS011;39197;53.200;5.792;2023-02-12T07:38:40;57.72;;;24.58;;
53309;SDS011;39197;53.200;5.792;2023-02-12T07:43:40;50.90;;;22.73;;
53309;SDS011;39197;53.200;5.792;2023-02-12T07:46:11;55.28;;;26.02;;
53309;SDS011;39197;53.200;5.792;2023-02-12T07:48:37;55.42;;;25.15;;
53309;SDS011;39197;53.200;5.792;2023-02-12T07:51:04;54.08;;;22.58;;
53309;SDS011;39197;53.200;5.792;2023-02-12T07:53:31;62.10;;;26.10;;
53309;SDS011;39197;53.200;5.792;2023-02-12T07:56:03;48.92;;;22.42;;
53309;SDS011;39197;53.200;5.792;2023-02-12T07:58:32;53.42;;;25.50;;
53309;SDS011;39197;53.200;5.792;2023-02-12T08:00:57;53.42;;;26.80;;
53309;SDS011;39197;53.200;5.792;2023-02-12T08:03:23;56.42;;;26.40;;
53309;SDS011;39197;53.200;5.792;2023-02-12T08:05:49;59.80;;;26.45;;
53309;SDS011;39197;53.200;5.792;2023-02-12T08:08:14;53.08;;;26.83;;
53309;SDS011;39197;53.200;5.792;2023-02-12T08:10:40;55.63;;;25.67;;
53309;SDS011;39197;53.200;5.792;2023-02-12T08:13:05;66.72;;;26.95;;
53309;SDS011;39197;53.200;5.792;2023-02-12T08:15:31;59.88;;;26.60;;
53309;SDS011;39197;53.200;5.792;2023-02-12T08:17:56;53.10;;;26.25;;
53309;SDS011;39197;53.200;5.792;2023-02-12T08:20:23;52.33;;;25.92;;
53309;SDS011;39197;53.200;5.792;2023-02-12T08:22:49;56.00;;;25.65;;
53309;SDS011;39197;53.200;5.792;2023-02-12T08:25:14;57.50;;;28.27;;
53309;SDS011;39197;53.200;5.792;2023-02-12T08:27:40;51.35;;;25.80;;
53309;SDS011;39197;53.200;5.792;2023-02-12T08:30:06;56.10;;;26.55;;
53309;SDS011;39197;53.200;5.792;2023-02-12T08:32:32;52.67;;;24.65;;
53309;SDS011;39197;53.200;5.792;2023-02-12T08:34:57;55.00;;;26.75;;
53309;SDS011;39197;53.200;5.792;2023-02-12T08:37:23;49.90;;;23.80;;
53309;SDS011;39197;53.200;5.792;2023-02-12T08:39:49;49.22;;;25.13;;
53309;SDS011;39197;53.200;5.792;2023-02-12T08:42:14;45.75;;;22.33;;
53309;SDS011;39197;53.200;5.792;2023-02-12T08:44:41;51.33;;;24.60;;
53309;SDS011;39197;53.200;5.792;2023-02-12T08:47:07;47.13;;;24.30;;
53309;SDS011;39197;53.200;5.792;2023-02-12T08:49:34;46.50;;;23.50;;
53309;SDS011;39197;53.200;5.792;2023-02-12T08:51:59;45.33;;;24.42;;
53309;SDS011;39197;53.200;5.792;2023-02-12T08:54:26;42.95;;;22.90;;
53309;SDS011;39197;53.200;5.792;2023-02-12T08:56:58;41.70;;;23.67;;
53309;SDS011;39197;53.200;5.792;2023-02-12T08:59:25;41.67;;;23.15;;
53309;SDS011;39197;53.200;5.792;2023-02-12T09:01:50;33.95;;;21.90;;
53309;SDS011;39197;53.200;5.792;2023-02-12T09:04:18;35.03;;;20.75;;
53309;SDS011;39197;53.200;5.792;2023-02-12T09:06:46;33.25;;;19.55;;
53309;SDS011;39197;53.200;5.792;2023-02-12T09:09:12;36.72;;;20.73;;
53309;SDS011;39197;53.200;5.792;2023-02-12T09:11:39;28.83;;;18.48;;
53309;SDS011;39197;53.200;5.792;2023-02-12T09:14:05;30.85;;;19.55;;
53309;SDS011;39197;53.200;5.792;2023-02-12T09:16:35;34.88;;;20.30;;
53309;SDS011;39197;53.200;5.792;2023-02-12T09:19:01;34.22;;;21.95;;
53309;SDS011;39197;53.200;5.792;2023-02-12T09:21:27;27.40;;;17.08;;
53309;SDS011;39197;53.200;5.792;2023-02-12T09:23:52;32.80;;;20.02;;
53309;SDS011;39197;53.200;5.792;2023-02-12T09:26:19;31.70;;;19.42;;
53309;SDS011;39197;53.200;5.792;2023-02-12T09:28:49;30.48;;;18.83;;
53309;SDS011;39197;53.200;5.792;2023-02-12T09:31:16;32.13;;;19.75;;
53309;SDS011;39197;53.200;5.792;2023-02-12T09:33:45;27.15;;;17.38;;
53309;SDS011;39197;53.200;5.792;2023-02-12T09:36:12;29.30;;;19.85;;
53309;SDS011;39197;53.200;5.792;2023-02-12T09:38:39;32.15;;;19.17;;
53309;SDS011;39197;53.200;5.792;2023-02-12T09:46:46;27.30;;;19.67;;
53309;SDS011;39197;53.200;5.792;2023-02-12T09:49:46;26.15;;;18.23;;
53309;SDS011;39197;53.200;5.792;2023-02-12T09:52:25;26.03;;;17.63;;
53309;SDS011;39197;53.200;5.792;2023-02-12T09:54:52;22.92;;;15.98;;
53309;SDS011;39197;53.200;5.792;2023-02-12T09:57:26;24.33;;;18.13;;
53309;SDS011;39197;53.200;5.792;2023-02-12T10:00:07;22.67;;;18.05;;
53309;SDS011;39197;53.200;5.792;2023-02-12T10:02:35;26.15;;;18.25;;
53309;SDS011;39197;53.200;5.792;2023-02-12T10:05:03;25.95;;;17.13;;
53309;SDS011;39197;53.200;5.792;2023-02-12T10:13:04;21.73;;;16.17;;
53309;SDS011;39197;53.200;5.792;2023-02-12T10:15:39;23.30;;;17.90;;
53309;SDS011;39197;53.200;5.792;2023-02-12T10:24:29;22.45;;;16.35;;
53309;SDS011;39197;53.200;5.792;2023-02-12T10:27:10;22.73;;;14.32;;
53309;SDS011;39197;53.200;5.792;2023-02-12T10:29:38;20.33;;;14.32;;
53309;SDS011;39197;53.200;5.792;2023-02-12T10:34:51;21.75;;;16.30;;
53309;SDS011;39197;53.200;5.792;2023-02-12T10:37:22;22.85;;;16.60;;
53309;SDS011;39197;53.200;5.792;2023-02-12T10:40:24;20.13;;;15.32;;
53309;SDS011;39197;53.200;5.792;2023-02-12T10:42:50;21.20;;;14.88;;
53309;SDS011;39197;53.200;5.792;2023-02-12T10:45:18;23.95;;;17.20;;
53309;SDS011;39197;53.200;5.792;2023-02-12T10:47:47;27.52;;;18.52;;
53309;SDS011;39197;53.200;5.792;2023-02-12T10:50:19;21.58;;;17.55;;
53309;SDS011;39197;53.200;5.792;2023-02-12T10:52:55;24.00;;;17.38;;
53309;SDS011;39197;53.200;5.792;2023-02-12T10:55:26;25.80;;;18.35;;
53309;SDS011;39197;53.200;5.792;2023-02-12T10:57:56;24.88;;;18.95;;
53309;SDS011;39197;53.200;5.792;2023-02-12T11:00:28;26.90;;;18.15;;
53309;SDS011;39197;53.200;5.792;2023-02-12T11:05:37;25.13;;;18.92;;
53309;SDS011;39197;53.200;5.792;2023-02-12T11:08:04;23.80;;;18.77;;
53309;SDS011;39197;53.200;5.792;2023-02-12T11:10:37;25.60;;;17.38;;
53309;SDS011;39197;53.200;5.792;2023-02-12T11:13:05;24.08;;;18.45;;
53309;SDS011;39197;53.200;5.792;2023-02-12T11:15:46;25.25;;;18.20;;
53309;SDS011;39197;53.200;5.792;2023-02-12T11:18:31;26.83;;;18.17;;
53309;SDS011;39197;53.200;5.792;2023-02-12T11:21:02;25.35;;;17.67;;
53309;SDS011;39197;53.200;5.792;2023-02-12T11:23:42;25.10;;;18.75;;
53309;SDS011;39197;53.200;5.792;2023-02-12T11:28:54;18.35;;;16.20;;
53309;SDS011;39197;53.200;5.792;2023-02-12T11:31:28;20.02;;;16.52;;
53309;SDS011;39197;53.200;5.792;2023-02-12T11:36:47;20.65;;;16.50;;
53309;SDS011;39197;53.200;5.792;2023-02-12T11:41:43;22.95;;;16.85;;
53309;SDS011;39197;53.200;5.792;2023-02-12T11:44:09;21.77;;;17.05;;
53309;SDS011;39197;53.200;5.792;2023-02-12T11:46:44;22.07;;;15.47;;
53309;SDS011;39197;53.200;5.792;2023-02-12T11:49:18;22.65;;;16.15;;
53309;SDS011;39197;53.200;5.792;2023-02-12T11:51:48;23.45;;;16.52;;
53309;SDS011;39197;53.200;5.792;2023-02-12T11:54:18;21.08;;;15.10;;
53309;SDS011;39197;53.200;5.792;2023-02-12T11:56:46;18.63;;;13.73;;
53309;SDS011;39197;53.200;5.792;2023-02-12T11:59:17;21.92;;;16.27;;
53309;SDS011;39197;53.200;5.792;2023-02-12T12:02:00;20.95;;;13.30;;
53309;SDS011;39197;53.200;5.792;2023-02-12T12:04:33;25.42;;;16.50;;
53309;SDS011;39197;53.200;5.792;2023-02-12T12:07:19;18.52;;;15.18;;
53309;SDS011;39197;53.200;5.792;2023-02-12T12:12:56;19.83;;;14.63;;
53309;SDS011;39197;53.200;5.792;2023-02-12T12:18:20;16.65;;;13.75;;
53309;SDS011;39197;53.200;5.792;2023-02-12T12:21:08;16.90;;;11.95;;
53309;SDS011;39197;53.200;5.792;2023-02-12T12:23:51;18.98;;;15.10;;
53309;SDS011;39197;53.200;5.792;2023-02-12T12:26:23;19.77;;;14.43;;
53309;SDS011;39197;53.200;5.792;2023-02-12T12:31:43;15.65;;;13.93;;
53309;SDS011;39197;53.200;5.792;2023-02-12T12:39:27;17.67;;;14.40;;
53309;SDS011;39197;53.200;5.792;2023-02-12T12:45:09;15.18;;;10.65;;
53309;SDS011;39197;53.200;5.792;2023-02-12T12:48:36;17.88;;;13.05;;
53309;SDS011;39197;53.200;5.792;2023-02-12T12:53:32;19.75;;;16.05;;
53309;SDS011;39197;53.200;5.792;2023-02-12T13:10:45;17.38;;;14.70;;
53309;SDS011;39197;53.200;5.792;2023-02-12T13:13:30;17.70;;;13.82;;
53309;SDS011;39197;53.200;5.792;2023-02-12T13:16:03;18.63;;;13.90;;
53309;SDS011;39197;53.200;5.792;2023-02-12T13:18:49;20.35;;;15.05;;
53309;SDS011;39197;53.200;5.792;2023-02-12T13:22:09;21.55;;;16.40;;
53309;SDS011;39197;53.200;5.792;2023-02-12T13:27:25;20.75;;;14.85;;
53309;SDS011;39197;53.200;5.792;2023-02-12T13:35:50;21.27;;;14.02;;
53309;SDS011;39197;53.200;5.792;2023-02-12T13:38:30;17.07;;;15.27;;
53309;SDS011;39197;53.200;5.792;2023-02-12T13:41:02;18.30;;;15.45;;
53309;SDS011;39197;53.200;5.792;2023-02-12T13:52:00;17.95;;;16.02;;
53309;SDS011;39197;53.200;5.792;2023-02-12T13:57:08;17.02;;;15.10;;
53309;SDS011;39197;53.200;5.792;2023-02-12T13:59:43;19.05;;;15.82;;
53309;SDS011;39197;53.200;5.792;2023-02-12T14:05:13;17.88;;;15.98;;
53309;SDS011;39197;53.200;5.792;2023-02-12T14:07:51;19.00;;;14.52;;
53309;SDS011;39197;53.200;5.792;2023-02-12T14:13:11;19.75;;;14.60;;
53309;SDS011;39197;53.200;5.792;2023-02-12T14:15:42;23.27;;;17.10;;
53309;SDS011;39197;53.200;5.792;2023-02-12T14:18:21;25.08;;;19.77;;
53309;SDS011;39197;53.200;5.792;2023-02-12T14:23:34;18.80;;;14.18;;
53309;SDS011;39197;53.200;5.792;2023-02-12T14:26:00;18.98;;;16.08;;
53309;SDS011;39197;53.200;5.792;2023-02-12T14:31:17;18.80;;;14.85;;
53309;SDS011;39197;53.200;5.792;2023-02-12T14:33:51;17.80;;;13.27;;
53309;SDS011;39197;53.200;5.792;2023-02-12T14:39:02;20.42;;;16.48;;
53309;SDS011;39197;53.200;5.792;2023-02-12T14:41:32;20.23;;;16.13;;
53309;SDS011;39197;53.200;5.792;2023-02-12T14:46:51;20.15;;;15.70;;
53309;SDS011;39197;53.200;5.792;2023-02-12T14:49:22;19.92;;;14.13;;
53309;SDS011;39197;53.200;5.792;2023-02-12T14:57:11;17.92;;;15.38;;
53309;SDS011;39197;53.200;5.792;2023-02-12T14:59:57;18.98;;;16.88;;
53309;SDS011;39197;53.200;5.792;2023-02-12T15:02:30;16.70;;;13.77;;
53309;SDS011;39197;53.200;5.792;2023-02-12T15:05:00;18.42;;;16.42;;
53309;SDS011;39197;53.200;5.792;2023-02-12T15:07:35;18.05;;;14.35;;
53309;SDS011;39197;53.200;5.792;2023-02-12T15:10:10;21.10;;;16.25;;
53309;SDS011;39197;53.200;5.792;2023-02-12T15:12:49;19.60;;;16.38;;
53309;SDS011;39197;53.200;5.792;2023-02-12T15:15:22;21.95;;;17.25;;
53309;SDS011;39197;53.200;5.792;2023-02-12T15:17:58;19.52;;;16.40;;
53309;SDS011;39197;53.200;5.792;2023-02-12T15:20:55;16.38;;;14.68;;
53309;SDS011;39197;53.200;5.792;2023-02-12T15:23:31;28.15;;;19.05;;
53309;SDS011;39197;53.200;5.792;2023-02-12T15:25:59;20.90;;;14.65;;
53309;SDS011;39197;53.200;5.792;2023-02-12T15:28:30;19.95;;;16.77;;
53309;SDS011;39197;53.200;5.792;2023-02-12T15:31:02;18.95;;;15.52;;
53309;SDS011;39197;53.200;5.792;2023-02-12T15:33:31;17.83;;;15.95;;
53309;SDS011;39197;53.200;5.792;2023-02-12T15:35:59;15.68;;;14.05;;
53309;SDS011;39197;53.200;5.792;2023-02-12T15:38:31;15.93;;;14.07;;
53309;SDS011;39197;53.200;5.792;2023-02-12T15:41:22;18.60;;;14.63;;
53309;SDS011;39197;53.200;5.792;2023-02-12T15:43:54;14.48;;;12.95;;
53309;SDS011;39197;53.200;5.792;2023-02-12T15:46:20;15.15;;;13.20;;
53309;SDS011;39197;53.200;5.792;2023-02-12T15:48:46;16.98;;;13.10;;
53309;SDS011;39197;53.200;5.792;2023-02-12T15:51:28;14.35;;;12.85;;
53309;SDS011;39197;53.200;5.792;2023-02-12T15:54:03;13.73;;;11.32;;
53309;SDS011;39197;53.200;5.792;2023-02-12T15:56:30;14.63;;;12.90;;
53309;SDS011;39197;53.200;5.792;2023-02-12T15:58:58;14.90;;;12.30;;
53309;SDS011;39197;53.200;5.792;2023-02-12T16:01:32;18.67;;;15.63;;
53309;SDS011;39197;53.200;5.792;2023-02-12T16:04:00;13.75;;;12.10;;
53309;SDS011;39197;53.200;5.792;2023-02-12T16:06:30;14.77;;;12.38;;
53309;SDS011;39197;53.200;5.792;2023-02-12T16:09:02;16.58;;;12.30;;
53309;SDS011;39197;53.200;5.792;2023-02-12T16:11:30;13.68;;;12.27;;
53309;SDS011;39197;53.200;5.792;2023-02-12T16:13:58;12.93;;;11.55;;
53309;SDS011;39197;53.200;5.792;2023-02-12T16:16:43;15.48;;;13.55;;
53309;SDS011;39197;53.200;5.792;2023-02-12T16:24:36;18.08;;;12.50;;
53309;SDS011;39197;53.200;5.792;2023-02-12T16:27:08;13.80;;;11.63;;
53309;SDS011;39197;53.200;5.792;2023-02-12T16:29:56;12.63;;;11.38;;
53309;SDS011;39197;53.200;5.792;2023-02-12T16:37:48;15.48;;;12.75;;
53309;SDS011;39197;53.200;5.792;2023-02-12T16:40:18;17.20;;;15.07;;
53309;SDS011;39197;53.200;5.792;2023-02-12T16:47:50;17.40;;;15.60;;
53309;SDS011;39197;53.200;5.792;2023-02-12T16:50:24;19.95;;;16.77;;
53309;SDS011;39197;53.200;5.792;2023-02-12T16:53:01;16.80;;;14.05;;
53309;SDS011;39197;53.200;5.792;2023-02-12T16:55:28;16.38;;;14.52;;
53309;SDS011;39197;53.200;5.792;2023-02-12T16:57:54;16.30;;;13.98;;
53309;SDS011;39197;53.200;5.792;2023-02-12T17:00:19;20.10;;;17.33;;
53309;SDS011;39197;53.200;5.792;2023-02-12T17:02:46;23.15;;;17.80;;
53309;SDS011;39197;53.200;5.792;2023-02-12T17:05:12;16.25;;;14.52;;
53309;SDS011;39197;53.200;5.792;2023-02-12T17:07:41;16.88;;;13.18;;
53309;SDS011;39197;53.200;5.792;2023-02-12T17:10:10;18.00;;;14.20;;
53309;SDS011;39197;53.200;5.792;2023-02-12T17:12:47;15.43;;;13.63;;
53309;SDS011;39197;53.200;5.792;2023-02-12T17:15:22;15.82;;;13.40;;
53309;SDS011;39197;53.200;5.792;2023-02-12T17:17:52;16.20;;;14.50;;
53309;SDS011;39197;53.200;5.792;2023-02-12T17:20:18;19.27;;;16.70;;
53309;SDS011;39197;53.200;5.792;2023-02-12T17:22:46;17.58;;;15.02;;
53309;SDS011;39197;53.200;5.792;2023-02-12T17:25:14;19.48;;;16.58;;